ESSA/ARN METAR and TAF weather

Enter ICAO airport designator
Station Type Date Time Source
ESSA METAR 2018/09/21 22:50 UTC NOAA

ESSA 212250Z 17015KT 9999 FEW015 11/10 Q0991 NOSIG


Station Type Date Time Source
ESSA Decoded METAR 2018/09/21 22:50 UTC NOAA

Stockholm / Arlanda, Sweden (ESSA) 59-39N 017-57E 61M
Sep 21, 2018 - 06:50 PM EDT / 2018.09.21 2250 UTC
Wind: from the S (170 degrees) at 17 MPH (15 KT):0
Visibility: greater than 7 mile(s):0
Sky conditions: mostly clear
Temperature: 51 F (11 C)
Dew Point: 50 F (10 C)
Relative Humidity: 93%
Pressure (altimeter): 29.26 in. Hg (0991 hPa)
ob: ESSA 212250Z 17015KT 9999 FEW015 11/10 Q0991 NOSIG
cycle: 23

Station Type Date Time Source
ESSA TAF 2018/09/21 18:33 UTC NOAA

TAF ESSA 211730Z 2118/2218 22018G28KT CAVOK
TEMPO 2118/2120 26020G40KT 4000 TSRA BKN020CB PROB40 2205/2208 SHRA BKN030CB
BECMG 2216/2218 25012KT


Example: see airport list